Time;durP1;ratioP1;P1;durP2;ratioP2;P2;SDS_P1;SDS_P2;PMS_P1;PMS_P2;Temp;Humidity;BMP_temperature;BMP_pressure;BME280_temperature;BME280_humidity;BME280_pressure;Samples;Min_cycle;Max_cycle;Signal;HPM_P1;HPM_P2
2024/01/26 00:01:04;;;;;;;3.07;1.80;;;;;;;;;;5055998;28;20243;-79
2024/01/26 00:03:42;;;;;;;2.90;1.77;;;;;;;;;;5073473;28;20207;-79
2024/01/26 00:06:10;;;;;;;4.80;1.90;;;;;;;;;;5073557;28;20648;-80
2024/01/26 00:08:37;;;;;;;4.93;1.60;;;;;;;;;;5073631;28;20211;-79
2024/01/26 00:11:04;;;;;;;2.70;1.60;;;;;;;;;;5073545;28;20192;-79
2024/01/26 00:13:31;;;;;;;2.90;1.70;;;;;;;;;;5073600;28;20298;-80
2024/01/26 00:15:59;;;;;;;3.93;2.00;;;;;;;;;;5073502;28;20199;-79
2024/01/26 00:18:26;;;;;;;4.20;2.67;;;;;;;;;;5073871;28;20248;-79
2024/01/26 00:20:53;;;;;;;4.07;2.10;;;;;;;;;;5073396;28;20520;-79
2024/01/26 00:23:20;;;;;;;2.07;1.83;;;;;;;;;;5073568;28;20535;-79
2024/01/26 00:25:47;;;;;;;2.13;1.80;;;;;;;;;;5073474;28;20196;-79
2024/01/26 00:28:14;;;;;;;4.37;1.93;;;;;;;;;;5055863;28;20675;-79
2024/01/26 00:30:41;;;;;;;5.80;2.20;;;;;;;;;;5055513;28;20218;-80
2024/01/26 00:33:08;;;;;;;3.40;2.10;;;;;;;;;;5073587;28;20193;-80
2024/01/26 00:35:36;;;;;;;5.20;2.10;;;;;;;;;;5073701;28;20206;-79
2024/01/26 00:38:03;;;;;;;2.17;1.80;;;;;;;;;;5055565;28;20202;-80
2024/01/26 00:40:30;;;;;;;2.90;1.57;;;;;;;;;;5073398;28;20191;-78
2024/01/26 00:42:57;;;;;;;2.63;1.93;;;;;;;;;;5055539;28;20229;-78
2024/01/26 00:45:24;;;;;;;5.40;1.93;;;;;;;;;;5073079;28;20667;-78
2024/01/26 00:47:51;;;;;;;2.90;1.73;;;;;;;;;;5072932;28;20675;-78
2024/01/26 00:50:19;;;;;;;4.63;1.77;;;;;;;;;;5073338;28;20196;-78
2024/01/26 00:52:46;;;;;;;2.93;1.90;;;;;;;;;;5073159;28;20206;-78
2024/01/26 00:55:13;;;;;;;1.60;1.50;;;;;;;;;;5072946;28;20549;-78
2024/01/26 00:57:40;;;;;;;2.47;1.70;;;;;;;;;;5075685;28;20642;-78
2024/01/26 01:00:08;;;;;;;3.00;1.70;;;;;;;;;;5073115;28;20250;-78
2024/01/26 01:02:35;;;;;;;2.10;1.80;;;;;;;;;;5056965;28;20204;-78
2024/01/26 01:05:03;;;;;;;2.87;1.90;;;;;;;;;;5056942;28;20207;-80
2024/01/26 01:07:30;;;;;;;1.93;1.47;;;;;;;;;;5056849;28;20204;-78
2024/01/26 01:09:57;;;;;;;1.60;1.40;;;;;;;;;;5056637;28;20204;-78
2024/01/26 01:12:24;;;;;;;3.87;1.80;;;;;;;;;;5039830;28;20661;-79
2024/01/26 01:14:51;;;;;;;4.00;1.50;;;;;;;;;;5036721;28;20236;-78
2024/01/26 01:17:18;;;;;;;2.53;1.43;;;;;;;;;;5036977;28;20203;-78
2024/01/26 01:19:45;;;;;;;1.97;1.30;;;;;;;;;;5036612;28;20212;-78
2024/01/26 01:22:13;;;;;;;2.00;1.43;;;;;;;;;;5036661;28;20551;-79
2024/01/26 01:24:40;;;;;;;2.37;1.30;;;;;;;;;;5036543;28;20208;-79
2024/01/26 01:27:07;;;;;;;1.60;1.30;;;;;;;;;;5036385;28;20735;-79
2024/01/26 01:29:34;;;;;;;3.40;1.50;;;;;;;;;;5035412;28;20200;-78
2024/01/26 01:32:01;;;;;;;1.60;1.33;;;;;;;;;;5036328;28;20211;-78
2024/01/26 01:34:28;;;;;;;1.60;1.40;;;;;;;;;;5036366;28;20224;-79
2024/01/26 01:36:56;;;;;;;1.53;1.17;;;;;;;;;;5035895;28;20201;-79
2024/01/26 01:39:23;;;;;;;2.23;1.33;;;;;;;;;;5036314;28;20666;-79
2024/01/26 01:41:50;;;;;;;3.20;1.30;;;;;;;;;;5036016;28;20549;-79
2024/01/26 01:44:17;;;;;;;2.67;1.50;;;;;;;;;;5036405;28;20254;-78
2024/01/26 01:46:44;;;;;;;2.87;1.57;;;;;;;;;;5035844;28;20240;-79
2024/01/26 01:49:12;;;;;;;2.93;1.47;;;;;;;;;;5036385;28;20251;-79
2024/01/26 01:51:44;;;;;;;1.63;1.20;;;;;;;;;;5034976;28;20197;-79
2024/01/26 01:54:12;;;;;;;2.13;1.33;;;;;;;;;;5035043;28;20229;-79
2024/01/26 01:56:39;;;;;;;2.33;1.43;;;;;;;;;;5036062;28;20259;-79
2024/01/26 01:59:08;;;;;;;1.57;1.30;;;;;;;;;;5035930;28;20201;-79
2024/01/26 02:01:35;;;;;;;2.67;1.30;;;;;;;;;;5037984;28;20232;-79
2024/01/26 02:04:04;;;;;;;1.23;1.13;;;;;;;;;;5035741;28;20204;-77
2024/01/26 02:06:31;;;;;;;1.63;1.23;;;;;;;;;;5036438;28;20288;-78
2024/01/26 02:08:59;;;;;;;1.67;1.20;;;;;;;;;;5034600;28;20193;-80
2024/01/26 02:11:26;;;;;;;2.50;1.10;;;;;;;;;;5018459;28;20209;-77
2024/01/26 02:13:53;;;;;;;1.83;1.20;;;;;;;;;;5035649;28;20278;-77
2024/01/26 02:16:20;;;;;;;1.00;1.00;;;;;;;;;;5036089;28;20205;-76
2024/01/26 02:18:47;;;;;;;1.20;1.10;;;;;;;;;;5035421;28;20246;-76
2024/01/26 02:21:15;;;;;;;0.83;0.80;;;;;;;;;;5035981;28;20209;-76
2024/01/26 02:23:43;;;;;;;1.30;1.17;;;;;;;;;;5035804;28;20200;-77
2024/01/26 02:26:10;;;;;;;1.23;1.10;;;;;;;;;;5035729;28;20354;-76
2024/01/26 02:28:37;;;;;;;1.27;1.00;;;;;;;;;;5035470;28;20193;-76
2024/01/26 02:31:04;;;;;;;1.67;1.13;;;;;;;;;;5035686;28;20192;-76
2024/01/26 02:33:32;;;;;;;1.10;1.00;;;;;;;;;;5035171;28;20661;-76
2024/01/26 02:35:59;;;;;;;1.10;1.00;;;;;;;;;;5035516;28;20677;-76
2024/01/26 02:38:26;;;;;;;3.33;1.00;;;;;;;;;;5035387;28;20208;-76
2024/01/26 02:40:53;;;;;;;0.90;0.83;;;;;;;;;;5035274;28;20209;-78
2024/01/26 02:43:20;;;;;;;1.30;1.10;;;;;;;;;;5017542;28;20251;-79
2024/01/26 02:45:47;;;;;;;1.30;1.00;;;;;;;;;;5035060;28;20208;-78
2024/01/26 02:48:15;;;;;;;1.40;1.10;;;;;;;;;;5035321;28;20209;-78
2024/01/26 02:50:42;;;;;;;2.20;1.10;;;;;;;;;;5035385;28;20719;-80
2024/01/26 02:53:09;;;;;;;1.67;0.90;;;;;;;;;;5001529;28;20225;-80
2024/01/26 02:55:36;;;;;;;2.27;1.10;;;;;;;;;;5034655;28;20232;-80
2024/01/26 02:58:03;;;;;;;0.90;0.90;;;;;;;;;;5034688;28;20193;-80
2024/01/26 03:00:30;;;;;;;2.90;1.47;;;;;;;;;;5034711;28;20228;-80
2024/01/26 03:02:58;;;;;;;1.30;1.20;;;;;;;;;;5034803;28;20195;-79
2024/01/26 03:05:25;;;;;;;1.40;0.90;;;;;;;;;;5034908;28;20278;-78
2024/01/26 03:07:52;;;;;;;1.63;1.07;;;;;;;;;;5016931;28;20193;-79
2024/01/26 03:10:19;;;;;;;2.20;1.20;;;;;;;;;;5034625;28;20201;-79
2024/01/26 03:12:47;;;;;;;1.17;1.00;;;;;;;;;;5034449;28;20251;-81
2024/01/26 03:15:14;;;;;;;1.30;1.20;;;;;;;;;;5034776;28;20219;-81
2024/01/26 03:17:42;;;;;;;1.57;1.23;;;;;;;;;;5017347;28;20224;-80
2024/01/26 03:20:09;;;;;;;1.47;1.20;;;;;;;;;;5016940;28;20275;-81
2024/01/26 03:22:36;;;;;;;1.73;1.30;;;;;;;;;;5034617;28;20643;-80
2024/01/26 03:25:03;;;;;;;1.97;1.50;;;;;;;;;;5034314;28;20534;-80
2024/01/26 03:27:31;;;;;;;1.40;1.17;;;;;;;;;;5034848;28;20203;-80
2024/01/26 03:29:58;;;;;;;3.13;1.23;;;;;;;;;;5034900;28;20192;-82
2024/01/26 03:32:25;;;;;;;3.70;1.30;;;;;;;;;;5034034;28;20238;-81
2024/01/26 03:34:52;;;;;;;1.33;1.23;;;;;;;;;;5033712;28;20547;-79
2024/01/26 03:37:19;;;;;;;2.17;1.40;;;;;;;;;;5034369;28;20642;-79
2024/01/26 03:39:47;;;;;;;1.20;1.10;;;;;;;;;;5033815;28;20212;-80
2024/01/26 03:42:14;;;;;;;2.80;1.47;;;;;;;;;;5034237;28;20539;-82
2024/01/26 03:44:42;;;;;;;1.20;1.10;;;;;;;;;;5034012;28;20835;-79
2024/01/26 03:47:09;;;;;;;3.90;1.57;;;;;;;;;;5034025;28;20196;-80
2024/01/26 03:49:40;;;;;;;1.90;1.40;;;;;;;;;;5033695;28;20598;-79
2024/01/26 03:52:08;;;;;;;1.93;1.47;;;;;;;;;;5033904;28;20209;-79
2024/01/26 03:54:35;;;;;;;3.13;1.40;;;;;;;;;;5016020;28;20250;-79
2024/01/26 03:57:02;;;;;;;1.60;1.50;;;;;;;;;;5033812;28;20196;-80
2024/01/26 03:59:29;;;;;;;1.90;1.47;;;;;;;;;;5033745;28;20216;-80
2024/01/26 04:01:57;;;;;;;1.90;1.40;;;;;;;;;;5033482;28;20224;-80
2024/01/26 04:04:24;;;;;;;2.43;1.50;;;;;;;;;;5033941;28;20210;-79
2024/01/26 04:06:51;;;;;;;3.10;1.20;;;;;;;;;;5033445;28;20215;-79
2024/01/26 04:09:18;;;;;;;1.63;1.33;;;;;;;;;;5033426;28;20200;-80
2024/01/26 04:11:45;;;;;;;1.77;1.23;;;;;;;;;;5033776;28;20258;-79
2024/01/26 04:14:12;;;;;;;2.93;1.57;;;;;;;;;;5033416;28;20206;-79
2024/01/26 04:16:39;;;;;;;1.60;1.40;;;;;;;;;;5033680;28;20658;-79
2024/01/26 04:19:06;;;;;;;2.07;1.40;;;;;;;;;;5033666;28;20227;-79
2024/01/26 04:21:34;;;;;;;1.23;1.13;;;;;;;;;;5033638;28;20193;-81
2024/01/26 04:24:01;;;;;;;1.30;1.20;;;;;;;;;;5033702;28;20200;-80
2024/01/26 04:26:29;;;;;;;2.00;1.57;;;;;;;;;;5033929;28;20250;-80
2024/01/26 04:28:56;;;;;;;3.10;1.37;;;;;;;;;;5033504;28;20283;-80
2024/01/26 04:31:24;;;;;;;2.93;1.47;;;;;;;;;;5034433;28;20204;-80
2024/01/26 04:33:51;;;;;;;1.90;1.50;;;;;;;;;;5037513;28;20295;-80
2024/01/26 04:36:20;;;;;;;1.60;1.27;;;;;;;;;;5019968;28;20224;-80
2024/01/26 04:38:47;;;;;;;1.70;1.57;;;;;;;;;;5020088;28;20193;-80
2024/01/26 04:41:14;;;;;;;1.87;1.60;;;;;;;;;;5037920;28;20208;-79
2024/01/26 04:43:43;;;;;;;1.47;1.37;;;;;;;;;;5019830;28;20212;-80
2024/01/26 04:46:10;;;;;;;1.60;1.50;;;;;;;;;;5020352;28;20216;-80
2024/01/26 04:48:37;;;;;;;1.97;1.77;;;;;;;;;;5037093;28;20197;-78
2024/01/26 04:51:05;;;;;;;2.10;1.73;;;;;;;;;;5020095;28;20205;-79
2024/01/26 04:53:32;;;;;;;3.00;1.73;;;;;;;;;;5037488;28;20247;-79
2024/01/26 04:56:01;;;;;;;2.13;1.80;;;;;;;;;;5037213;28;20217;-79
2024/01/26 04:58:28;;;;;;;3.07;2.17;;;;;;;;;;5019747;28;20209;-79
2024/01/26 05:00:55;;;;;;;1.73;1.63;;;;;;;;;;5036877;28;20282;-79
2024/01/26 05:03:22;;;;;;;3.70;1.80;;;;;;;;;;5037327;28;20287;-79
2024/01/26 05:05:50;;;;;;;3.40;1.53;;;;;;;;;;5037043;28;20228;-79
2024/01/26 05:08:17;;;;;;;5.07;1.80;;;;;;;;;;5037309;28;20228;-78
2024/01/26 05:10:44;;;;;;;3.00;1.53;;;;;;;;;;5037697;28;20243;-78
2024/01/26 05:13:12;;;;;;;3.23;1.80;;;;;;;;;;5049723;28;20239;-78
2024/01/26 05:15:39;;;;;;;2.03;1.50;;;;;;;;;;5036237;28;20701;-78
2024/01/26 05:18:06;;;;;;;1.43;1.30;;;;;;;;;;5055274;28;20219;-78
2024/01/26 05:20:33;;;;;;;1.40;1.30;;;;;;;;;;5055077;28;20231;-78
2024/01/26 05:23:01;;;;;;;1.73;1.03;;;;;;;;;;5054506;28;20236;-79
2024/01/26 05:25:28;;;;;;;1.10;1.10;;;;;;;;;;5055946;28;20231;-79
2024/01/26 05:27:55;;;;;;;1.33;1.00;;;;;;;;;;5055185;28;20224;-79
2024/01/26 05:30:22;;;;;;;1.17;1.07;;;;;;;;;;5055633;28;20286;-78
2024/01/26 05:32:49;;;;;;;4.27;1.40;;;;;;;;;;5055288;28;20235;-79
2024/01/26 05:35:16;;;;;;;1.50;1.30;;;;;;;;;;5055795;28;20258;-80
2024/01/26 05:37:43;;;;;;;1.77;1.30;;;;;;;;;;5054318;28;20220;-80
2024/01/26 05:40:11;;;;;;;2.17;1.53;;;;;;;;;;5055509;28;20227;-73
2024/01/26 05:42:38;;;;;;;2.40;1.90;;;;;;;;;;5054490;28;20685;-79
2024/01/26 05:45:06;;;;;;;2.07;1.70;;;;;;;;;;5055130;28;20716;-79
2024/01/26 05:47:33;;;;;;;2.60;2.00;;;;;;;;;;5054440;28;20281;-80
2024/01/26 05:50:00;;;;;;;3.47;1.77;;;;;;;;;;5054903;28;20228;-78
2024/01/26 05:52:28;;;;;;;2.47;1.80;;;;;;;;;;5054210;28;20607;-79
2024/01/26 05:54:55;;;;;;;2.97;2.20;;;;;;;;;;5037855;28;20276;-79
2024/01/26 05:57:22;;;;;;;4.60;2.60;;;;;;;;;;5055284;28;20239;-81
2024/01/26 05:59:49;;;;;;;2.43;2.00;;;;;;;;;;5054568;28;20319;-79
2024/01/26 06:02:16;;;;;;;3.70;2.20;;;;;;;;;;5074520;28;20235;-79
2024/01/26 06:04:43;;;;;;;1.83;1.70;;;;;;;;;;5074259;28;20246;-79
2024/01/26 06:07:11;;;;;;;2.80;2.20;;;;;;;;;;5074326;28;20219;-80
2024/01/26 06:09:39;;;;;;;2.73;1.70;;;;;;;;;;5074046;28;20266;-80
2024/01/26 06:12:07;;;;;;;4.03;2.00;;;;;;;;;;5074614;28;20249;-80
2024/01/26 06:14:37;;;;;;;1.60;1.50;;;;;;;;;;5074073;28;20234;-79
2024/01/26 06:17:04;;;;;;;1.97;1.77;;;;;;;;;;5075114;28;20211;-79
2024/01/26 06:19:31;;;;;;;2.43;2.00;;;;;;;;;;5074841;28;20203;-79
2024/01/26 06:21:59;;;;;;;2.07;1.73;;;;;;;;;;5057400;28;20207;-80
2024/01/26 06:24:27;;;;;;;3.17;1.90;;;;;;;;;;5074170;28;20217;-80
2024/01/26 06:26:54;;;;;;;2.40;1.77;;;;;;;;;;5073874;28;20206;-80
2024/01/26 06:29:22;;;;;;;2.70;1.80;;;;;;;;;;5074838;28;20264;-79
2024/01/26 06:31:49;;;;;;;2.50;1.77;;;;;;;;;;5074994;28;20648;-80
2024/01/26 06:34:16;;;;;;;1.80;1.60;;;;;;;;;;5074915;28;20199;-80
2024/01/26 06:36:45;;;;;;;2.17;1.60;;;;;;;;;;5074955;28;20223;-79
2024/01/26 06:39:12;;;;;;;1.83;1.60;;;;;;;;;;5074764;28;20203;-80
2024/01/26 06:41:43;;;;;;;3.03;1.70;;;;;;;;;;5057096;28;20196;-79
2024/01/26 06:44:11;;;;;;;11.50;1.90;;;;;;;;;;5057309;28;20664;-80
2024/01/26 06:46:38;;;;;;;3.53;1.70;;;;;;;;;;5074740;28;20195;-79
2024/01/26 06:49:05;;;;;;;3.33;1.90;;;;;;;;;;5074638;28;20203;-80
2024/01/26 06:51:33;;;;;;;2.07;1.77;;;;;;;;;;5074615;28;20203;-80
2024/01/26 06:54:01;;;;;;;2.03;1.80;;;;;;;;;;5056184;28;20298;-79
2024/01/26 06:56:29;;;;;;;2.30;1.63;;;;;;;;;;5074527;28;20253;-79
2024/01/26 06:58:56;;;;;;;1.73;1.60;;;;;;;;;;5074647;28;20256;-79
2024/01/26 07:01:23;;;;;;;4.20;1.97;;;;;;;;;;5053296;28;20247;-80
2024/01/26 07:03:50;;;;;;;2.53;1.77;;;;;;;;;;5054373;28;20214;-80
2024/01/26 07:06:18;;;;;;;3.67;2.07;;;;;;;;;;5053275;28;20212;-80
2024/01/26 07:08:45;;;;;;;2.40;1.60;;;;;;;;;;5054806;28;20206;-79
2024/01/26 07:11:14;;;;;;;4.27;1.90;;;;;;;;;;5054922;28;20189;-79
2024/01/26 07:13:41;;;;;;;3.00;1.70;;;;;;;;;;5054286;28;20661;-80
2024/01/26 07:16:08;;;;;;;4.77;1.80;;;;;;;;;;5054331;28;20281;-80
2024/01/26 07:18:35;;;;;;;4.87;1.97;;;;;;;;;;5054210;28;20296;-80
2024/01/26 07:21:07;;;;;;;2.77;2.03;;;;;;;;;;5054829;28;20196;-79
2024/01/26 07:23:34;;;;;;;2.73;2.10;;;;;;;;;;5054586;28;20261;-79
2024/01/26 07:26:02;;;;;;;2.37;1.77;;;;;;;;;;5054172;28;20208;-79
2024/01/26 07:28:29;;;;;;;2.40;1.80;;;;;;;;;;5054111;28;20327;-80
2024/01/26 07:30:56;;;;;;;4.70;2.33;;;;;;;;;;5054155;28;20265;-80
2024/01/26 07:33:23;;;;;;;3.77;1.90;;;;;;;;;;5054118;28;20210;-79
2024/01/26 07:35:50;;;;;;;3.93;2.30;;;;;;;;;;5053994;28;20307;-79
2024/01/26 07:38:17;;;;;;;2.53;1.80;;;;;;;;;;5054057;28;20254;-80
2024/01/26 07:40:44;;;;;;;2.53;1.93;;;;;;;;;;5053844;28;20188;-80
2024/01/26 07:43:11;;;;;;;4.20;2.27;;;;;;;;;;5053843;28;20207;-79
2024/01/26 07:45:39;;;;;;;2.23;1.73;;;;;;;;;;5053633;28;20541;-80
2024/01/26 07:48:06;;;;;;;2.70;2.30;;;;;;;;;;5053887;28;20204;-79
2024/01/26 07:50:33;;;;;;;3.90;2.53;;;;;;;;;;5052451;28;20211;-80
2024/01/26 07:53:00;;;;;;;2.53;1.80;;;;;;;;;;5054075;28;20211;-80
2024/01/26 07:55:27;;;;;;;2.83;1.83;;;;;;;;;;5053569;28;20227;-80
2024/01/26 07:57:54;;;;;;;5.10;2.10;;;;;;;;;;5053635;28;20262;-80
2024/01/26 08:00:22;;;;;;;3.40;2.33;;;;;;;;;;5051888;28;20314;-80
2024/01/26 08:02:50;;;;;;;6.27;2.33;;;;;;;;;;5053626;28;20204;-80
2024/01/26 08:05:17;;;;;;;2.93;1.77;;;;;;;;;;5053310;28;20203;-80
2024/01/26 08:07:45;;;;;;;2.73;1.90;;;;;;;;;;5053689;28;20689;-80
2024/01/26 08:10:12;;;;;;;2.13;1.83;;;;;;;;;;5053290;28;20568;-80
2024/01/26 08:12:45;;;;;;;3.53;2.23;;;;;;;;;;5053757;28;20184;-80
2024/01/26 08:15:14;;;;;;;7.73;2.20;;;;;;;;;;5051959;28;20250;-80
2024/01/26 08:17:42;;;;;;;3.03;1.67;;;;;;;;;;5053405;28;20665;-80
2024/01/26 08:20:11;;;;;;;4.33;1.83;;;;;;;;;;5053570;28;20200;-79
2024/01/26 08:22:39;;;;;;;4.67;2.10;;;;;;;;;;5053449;28;20206;-81
2024/01/26 08:25:07;;;;;;;3.07;2.23;;;;;;;;;;5053450;28;20212;-81
2024/01/26 08:27:35;;;;;;;5.20;2.10;;;;;;;;;;5053203;28;20214;-80
2024/01/26 08:30:04;;;;;;;2.10;1.80;;;;;;;;;;5053124;28;20192;-80
2024/01/26 08:32:31;;;;;;;3.03;2.10;;;;;;;;;;5052834;28;20199;-80
2024/01/26 08:34:59;;;;;;;3.97;2.07;;;;;;;;;;5053233;28;20204;-80
2024/01/26 08:37:27;;;;;;;5.27;2.10;;;;;;;;;;5052943;28;20238;-79
2024/01/26 08:39:54;;;;;;;3.03;2.10;;;;;;;;;;5052977;28;20208;-80
2024/01/26 08:42:21;;;;;;;3.53;1.80;;;;;;;;;;5052812;28;20212;-80
2024/01/26 08:44:49;;;;;;;3.20;1.97;;;;;;;;;;5053197;28;20250;-79
2024/01/26 08:47:16;;;;;;;3.23;2.13;;;;;;;;;;5053152;28;20558;-79
2024/01/26 08:49:43;;;;;;;3.53;2.13;;;;;;;;;;5052969;28;20199;-79
2024/01/26 08:52:10;;;;;;;3.93;1.90;;;;;;;;;;5052844;28;20692;-79
2024/01/26 08:54:38;;;;;;;4.73;2.07;;;;;;;;;;5052230;28;20641;-80
2024/01/26 08:57:05;;;;;;;4.47;2.03;;;;;;;;;;5052917;28;20266;-79
2024/01/26 08:59:32;;;;;;;3.50;1.83;;;;;;;;;;5052883;28;20262;-79
2024/01/26 09:01:59;;;;;;;3.50;2.00;;;;;;;;;;5070107;28;20234;-80
2024/01/26 09:04:26;;;;;;;2.10;1.90;;;;;;;;;;5072964;28;20200;-79
2024/01/26 09:06:53;;;;;;;2.20;1.60;;;;;;;;;;5072895;28;20226;-79
2024/01/26 09:09:33;;;;;;;3.80;1.67;;;;;;;;;;5072653;28;20210;-79
2024/01/26 09:12:00;;;;;;;2.37;1.70;;;;;;;;;;5055027;28;20203;-80
2024/01/26 09:14:28;;;;;;;3.83;2.20;;;;;;;;;;5072554;28;20195;-80
2024/01/26 09:16:55;;;;;;;3.30;1.80;;;;;;;;;;5072960;28;20227;-80
2024/01/26 09:19:23;;;;;;;2.67;1.90;;;;;;;;;;5076192;28;20251;-79
2024/01/26 09:21:51;;;;;;;4.33;1.97;;;;;;;;;;5076451;28;20290;-79
2024/01/26 09:24:18;;;;;;;4.80;1.93;;;;;;;;;;5076243;28;20565;-79
2024/01/26 09:26:45;;;;;;;4.33;2.00;;;;;;;;;;5076589;28;20207;-79
2024/01/26 09:29:13;;;;;;;1.83;1.53;;;;;;;;;;5076001;28;20208;-79
2024/01/26 09:31:40;;;;;;;2.20;1.60;;;;;;;;;;5076167;28;20294;-80
2024/01/26 09:34:07;;;;;;;2.47;1.33;;;;;;;;;;5076282;28;20218;-79
2024/01/26 09:36:35;;;;;;;2.80;1.97;;;;;;;;;;5076166;28;20297;-79
2024/01/26 09:39:02;;;;;;;3.80;1.70;;;;;;;;;;5076343;28;20558;-80
2024/01/26 09:41:30;;;;;;;3.33;1.70;;;;;;;;;;5076092;28;20211;-80
2024/01/26 09:43:57;;;;;;;3.83;1.73;;;;;;;;;;5076008;28;20211;-79
2024/01/26 09:46:24;;;;;;;4.47;2.33;;;;;;;;;;5075854;28;20283;-79
2024/01/26 09:48:54;;;;;;;3.93;2.03;;;;;;;;;;5076055;28;20206;-80
2024/01/26 09:51:22;;;;;;;4.50;1.93;;;;;;;;;;5076108;28;20207;-79
2024/01/26 09:53:51;;;;;;;2.43;1.70;;;;;;;;;;5058692;28;20211;-79
2024/01/26 09:56:19;;;;;;;2.63;1.30;;;;;;;;;;5057975;28;20700;-80
2024/01/26 09:58:46;;;;;;;3.27;1.70;;;;;;;;;;5058594;28;20199;-80
2024/01/26 10:01:16;;;;;;;2.30;1.50;;;;;;;;;;5075416;28;20636;-79
2024/01/26 10:03:44;;;;;;;3.90;1.83;;;;;;;;;;5058138;28;20203;-79
2024/01/26 10:06:11;;;;;;;2.00;1.67;;;;;;;;;;5075978;28;20671;-80
2024/01/26 10:08:40;;;;;;;2.80;1.80;;;;;;;;;;5058252;28;20210;-79
2024/01/26 10:11:08;;;;;;;3.20;1.57;;;;;;;;;;5075650;28;20253;-80
2024/01/26 10:13:36;;;;;;;4.20;1.60;;;;;;;;;;5057686;28;20192;-80
2024/01/26 10:16:07;;;;;;;4.93;1.70;;;;;;;;;;5075037;28;20203;-80
2024/01/26 10:18:53;;;;;;;2.03;1.10;;;;;;;;;;5075390;28;20204;-79
2024/01/26 10:21:22;;;;;;;2.00;1.03;;;;;;;;;;5075449;28;20537;-79
2024/01/26 10:23:51;;;;;;;4.70;1.67;;;;;;;;;;5075426;28;20210;-79
2024/01/26 10:26:18;;;;;;;1.60;1.10;;;;;;;;;;5075235;28;20526;-79
2024/01/26 10:28:48;;;;;;;2.37;1.47;;;;;;;;;;5074213;28;20664;-80
2024/01/26 10:31:15;;;;;;;2.23;1.50;;;;;;;;;;5075320;28;20725;-79
2024/01/26 10:33:45;;;;;;;2.30;1.40;;;;;;;;;;5075294;28;20223;-79
2024/01/26 10:36:13;;;;;;;2.10;1.60;;;;;;;;;;5074872;28;20229;-80
2024/01/26 10:38:43;;;;;;;2.97;1.23;;;;;;;;;;5074862;28;20211;-79
2024/01/26 10:41:14;;;;;;;1.27;1.13;;;;;;;;;;5057289;28;20249;-79
2024/01/26 10:43:43;;;;;;;2.63;1.57;;;;;;;;;;5057343;28;20199;-80
2024/01/26 10:46:11;;;;;;;3.23;1.40;;;;;;;;;;5075048;28;20231;-80
2024/01/26 10:48:38;;;;;;;2.43;1.50;;;;;;;;;;5057362;28;20215;-80
2024/01/26 10:51:06;;;;;;;2.10;1.30;;;;;;;;;;5074968;28;20203;-81
2024/01/26 10:53:34;;;;;;;2.27;1.37;;;;;;;;;;5056700;28;20668;-80
2024/01/26 10:56:03;;;;;;;3.07;1.60;;;;;;;;;;5074788;28;20290;-79
2024/01/26 10:58:30;;;;;;;1.67;1.10;;;;;;;;;;5074908;28;20204;-80
2024/01/26 11:00:57;;;;;;;2.50;1.10;;;;;;;;;;5053261;28;20662;-79
2024/01/26 11:03:27;;;;;;;2.07;1.10;;;;;;;;;;5054857;28;20535;-80
2024/01/26 11:05:55;;;;;;;1.57;1.20;;;;;;;;;;5054367;28;20281;-79
2024/01/26 11:08:26;;;;;;;2.50;1.57;;;;;;;;;;5053428;28;20196;-79
2024/01/26 11:10:54;;;;;;;2.40;1.00;;;;;;;;;;5053269;28;20215;-80
2024/01/26 11:13:22;;;;;;;1.10;0.93;;;;;;;;;;5053305;28;20192;-79
2024/01/26 11:15:49;;;;;;;4.03;1.40;;;;;;;;;;5054121;28;20641;-79
2024/01/26 11:18:24;;;;;;;1.53;0.90;;;;;;;;;;5054416;28;20230;-80
2024/01/26 11:20:51;;;;;;;0.90;0.90;;;;;;;;;;5053949;28;20215;-80
2024/01/26 11:23:20;;;;;;;1.70;1.00;;;;;;;;;;5054489;28;20544;-79
2024/01/26 11:25:53;;;;;;;2.50;1.10;;;;;;;;;;5054004;28;20220;-79
2024/01/26 11:28:28;;;;;;;1.10;1.00;;;;;;;;;;5054350;28;20649;-80
2024/01/26 11:30:57;;;;;;;1.37;1.23;;;;;;;;;;5053959;28;20207;-79
2024/01/26 11:33:35;;;;;;;4.23;2.07;;;;;;;;;;5054376;28;20285;-79
2024/01/26 11:36:04;;;;;;;3.43;1.43;;;;;;;;;;5053871;28;20277;-79
2024/01/26 11:38:32;;;;;;;2.00;1.10;;;;;;;;;;5054252;28;20204;-79
2024/01/26 11:41:01;;;;;;;2.60;1.27;;;;;;;;;;5053048;28;20208;-79
2024/01/26 11:43:29;;;;;;;1.60;1.03;;;;;;;;;;5053706;28;20215;-80
2024/01/26 11:45:57;;;;;;;1.77;1.20;;;;;;;;;;5053478;28;20200;-80
2024/01/26 11:48:24;;;;;;;1.20;1.10;;;;;;;;;;5054101;28;20208;-80
2024/01/26 11:50:52;;;;;;;2.50;1.60;;;;;;;;;;5053777;28;20210;-79
2024/01/26 11:53:23;;;;;;;2.80;1.63;;;;;;;;;;5053869;28;20246;-79
2024/01/26 11:55:52;;;;;;;12.20;3.30;;;;;;;;;;5053359;28;20208;-79
2024/01/26 11:58:20;;;;;;;4.87;2.43;;;;;;;;;;5053359;28;20338;-79
2024/01/26 12:00:47;;;;;;;3.73;2.13;;;;;;;;;;5060268;28;20241;-80
2024/01/26 12:03:17;;;;;;;3.23;2.20;;;;;;;;;;5073331;28;20663;-79
2024/01/26 12:05:44;;;;;;;2.40;1.70;;;;;;;;;;5055850;28;20191;-79
2024/01/26 12:08:13;;;;;;;2.73;1.67;;;;;;;;;;5073415;28;20207;-80
2024/01/26 12:10:42;;;;;;;1.30;1.20;;;;;;;;;;5055921;28;20244;-79
2024/01/26 12:13:10;;;;;;;2.87;1.40;;;;;;;;;;5074147;28;20207;-79
2024/01/26 12:15:39;;;;;;;3.30;1.70;;;;;;;;;;5073120;28;20203;-80
2024/01/26 12:18:09;;;;;;;1.47;1.37;;;;;;;;;;5073262;28;20242;-80
2024/01/26 12:20:38;;;;;;;3.47;1.70;;;;;;;;;;5073336;28;20203;-79
2024/01/26 12:23:16;;;;;;;1.50;1.20;;;;;;;;;;5055545;28;20207;-80
2024/01/26 12:25:44;;;;;;;1.67;1.30;;;;;;;;;;5073352;28;20203;-79
2024/01/26 12:28:11;;;;;;;1.80;1.43;;;;;;;;;;5073767;28;20187;-79
2024/01/26 12:30:38;;;;;;;2.23;1.30;;;;;;;;;;5073593;28;20336;-80
2024/01/26 12:33:06;;;;;;;3.53;1.47;;;;;;;;;;5073244;28;20566;-79
2024/01/26 12:35:35;;;;;;;4.70;2.10;;;;;;;;;;5073421;28;20199;-79
2024/01/26 12:38:02;;;;;;;4.10;1.97;;;;;;;;;;5073117;28;20219;-79
2024/01/26 12:40:29;;;;;;;2.63;1.27;;;;;;;;;;5073236;28;20234;-80
2024/01/26 12:42:56;;;;;;;2.60;1.60;;;;;;;;;;5073482;28;20218;-79
2024/01/26 12:45:23;;;;;;;4.13;1.70;;;;;;;;;;5073067;28;20199;-79
2024/01/26 12:47:51;;;;;;;4.47;3.27;;;;;;;;;;5073180;28;20211;-79
2024/01/26 12:50:18;;;;;;;4.13;2.03;;;;;;;;;;5073063;28;20215;-80
2024/01/26 12:52:45;;;;;;;12.40;2.80;;;;;;;;;;5075012;28;20216;-80
2024/01/26 12:55:12;;;;;;;4.03;2.10;;;;;;;;;;5076985;28;20301;-79
2024/01/26 12:57:40;;;;;;;3.57;2.07;;;;;;;;;;5077018;28;20226;-80
2024/01/26 13:00:07;;;;;;;3.53;1.67;;;;;;;;;;5075966;28;20195;-79
2024/01/26 13:02:35;;;;;;;1.97;1.30;;;;;;;;;;5077016;28;20534;-79
2024/01/26 13:05:03;;;;;;;1.70;1.40;;;;;;;;;;5076696;28;20207;-79
2024/01/26 13:07:31;;;;;;;2.30;1.53;;;;;;;;;;5077102;28;20203;-80
2024/01/26 13:09:58;;;;;;;2.43;1.60;;;;;;;;;;5076719;28;20207;-79
2024/01/26 13:12:25;;;;;;;2.67;1.77;;;;;;;;;;5059244;28;20561;-79
2024/01/26 13:14:53;;;;;;;2.37;1.40;;;;;;;;;;5058882;28;20207;-79
2024/01/26 13:17:20;;;;;;;3.30;1.70;;;;;;;;;;5076512;28;20233;-80
2024/01/26 13:19:47;;;;;;;1.43;1.33;;;;;;;;;;5076768;28;20667;-80
2024/01/26 13:22:21;;;;;;;2.50;1.77;;;;;;;;;;5076320;28;20261;-79
2024/01/26 13:24:48;;;;;;;2.47;1.87;;;;;;;;;;5075538;28;20215;-79
2024/01/26 13:27:16;;;;;;;2.43;1.50;;;;;;;;;;5075901;28;20191;-79
2024/01/26 13:29:49;;;;;;;3.37;1.60;;;;;;;;;;5067878;28;20245;-78
2024/01/26 13:32:16;;;;;;;1.80;1.50;;;;;;;;;;5065156;28;20236;-79
2024/01/26 13:34:43;;;;;;;2.07;1.60;;;;;;;;;;5071577;28;20253;-79
2024/01/26 13:37:11;;;;;;;4.00;2.00;;;;;;;;;;5074575;28;20297;-79
2024/01/26 13:39:38;;;;;;;2.90;1.77;;;;;;;;;;5075184;28;20234;-79
2024/01/26 13:42:06;;;;;;;2.53;1.40;;;;;;;;;;5074195;28;20219;-78
2024/01/26 13:44:34;;;;;;;1.67;1.30;;;;;;;;;;5074894;28;20234;-79
2024/01/26 13:47:01;;;;;;;2.67;1.50;;;;;;;;;;5074353;28;20235;-79
2024/01/26 13:49:28;;;;;;;1.80;1.30;;;;;;;;;;5075598;28;20231;-79
2024/01/26 13:51:56;;;;;;;2.23;1.67;;;;;;;;;;5074567;28;20742;-79
2024/01/26 13:54:23;;;;;;;2.27;1.70;;;;;;;;;;5075022;28;20265;-79
2024/01/26 13:56:56;;;;;;;6.20;2.87;;;;;;;;;;5074374;28;20227;-79
2024/01/26 13:59:23;;;;;;;4.30;1.93;;;;;;;;;;5074855;28;20595;-80
2024/01/26 14:01:51;;;;;;;3.13;2.20;;;;;;;;;;5072736;28;20238;-79
2024/01/26 14:04:19;;;;;;;5.83;2.73;;;;;;;;;;5055510;28;20642;-79
2024/01/26 14:06:47;;;;;;;2.33;1.40;;;;;;;;;;5054284;28;20224;-78
2024/01/26 14:09:14;;;;;;;1.30;1.20;;;;;;;;;;5074333;28;20310;-78
2024/01/26 14:11:41;;;;;;;2.50;1.70;;;;;;;;;;5040703;28;20227;-79
2024/01/26 14:14:09;;;;;;;3.30;1.70;;;;;;;;;;5074676;28;20229;-79
2024/01/26 14:16:36;;;;;;;3.87;1.90;;;;;;;;;;5074114;28;20615;-78
2024/01/26 14:19:03;;;;;;;3.43;1.90;;;;;;;;;;5056674;28;20239;-78
2024/01/26 14:21:31;;;;;;;1.63;1.40;;;;;;;;;;5074569;28;20635;-78
2024/01/26 14:23:58;;;;;;;2.20;1.70;;;;;;;;;;5057032;28;20280;-79
2024/01/26 14:26:28;;;;;;;2.83;1.77;;;;;;;;;;5074766;28;20280;-79
2024/01/26 14:28:55;;;;;;;3.90;1.90;;;;;;;;;;5075180;28;20274;-78
2024/01/26 14:31:26;;;;;;;3.50;2.00;;;;;;;;;;5073768;28;20231;-78
2024/01/26 14:33:53;;;;;;;2.97;2.10;;;;;;;;;;5058614;28;20569;-79
2024/01/26 14:36:21;;;;;;;4.60;2.30;;;;;;;;;;5055210;28;20240;-79
2024/01/26 14:38:48;;;;;;;5.70;2.60;;;;;;;;;;5037056;28;20219;-79
2024/01/26 14:41:16;;;;;;;4.90;2.50;;;;;;;;;;5054143;28;20239;-78
2024/01/26 14:43:43;;;;;;;4.53;2.63;;;;;;;;;;5054752;28;20231;-79
2024/01/26 14:46:10;;;;;;;4.87;2.60;;;;;;;;;;5065245;28;20486;-78